Time;durP1;ratioP1;P1;durP2;ratioP2;P2;SDS_P1;SDS_P2;PMS_P1;PMS_P2;Temp;Humidity;BMP_temperature;BMP_pressure;BME280_temperature;BME280_humidity;BME280_pressure;Samples;Min_cycle;Max_cycle;Signal;HPM_P1;HPM_P2
2021/11/14 00:02:14;;;;;;;;;11.00;10.25;;;;;12.02;76.25;101049.16;4995100;28;48514;-91
2021/11/14 00:08:02;;;;;;;;;10.25;8.75;;;;;12.00;76.26;101061.53;5000785;28;45856;-89
2021/11/14 00:10:28;;;;;;;;;10.75;8.25;;;;;11.78;76.19;101024.59;5003911;28;46819;-90
2021/11/14 00:12:54;;;;;;;;;13.00;10.00;;;;;11.88;76.49;101038.75;5003833;28;46324;-89
2021/11/14 00:15:20;;;;;;;;;9.25;8.00;;;;;12.02;76.26;101054.41;5004187;28;45552;-88
2021/11/14 00:17:46;;;;;;;;;8.50;8.50;;;;;12.05;76.32;101066.47;5012989;28;45742;-84
2021/11/14 00:20:12;;;;;;;;;9.00;9.00;;;;;11.92;76.09;101044.66;5016950;28;46106;-84
2021/11/14 00:22:38;;;;;;;;;9.75;9.00;;;;;12.01;76.19;101063.22;5017874;28;46045;-83
2021/11/14 00:25:07;;;;;;;;;11.00;10.00;;;;;11.91;76.28;101048.22;5019698;28;45626;-87
2021/11/14 00:27:33;;;;;;;;;10.25;9.00;;;;;11.98;76.38;101063.47;5019502;28;45346;-84
2021/11/14 00:29:58;;;;;;;;;1.50;1.00;;;;;11.98;76.19;101063.47;5018106;28;46554;-80
2021/11/14 00:32:25;;;;;;;;;9.75;9.00;;;;;11.94;76.24;101058.50;5019356;28;45703;-88
2021/11/14 00:38:12;;;;;;;;;11.75;9.00;;;;;11.95;76.79;101065.44;5006028;28;45572;-91
2021/11/14 00:40:41;;;;;;;;;14.25;10.75;;;;;11.96;76.67;101054.84;5001893;28;46591;-80
2021/11/14 00:43:07;;;;;;;;;11.75;10.75;;;;;11.95;76.50;101062.81;5000286;28;45615;-90
2021/11/14 00:45:35;;;;;;;;;11.75;10.75;;;;;11.97;76.41;101058.31;4998573;28;45701;-87
2021/11/14 00:48:01;;;;;;;;;10.00;9.00;;;;;11.96;76.69;101070.59;4998241;28;45580;-87
2021/11/14 00:50:27;;;;;;;;;11.25;9.50;;;;;11.93;76.64;101062.09;5020720;28;46586;-89
2021/11/14 00:52:52;;;;;;;;;11.75;9.00;;;;;11.91;76.72;101072.69;5003783;28;45723;-89
2021/11/14 00:55:21;;;;;;;;;8.75;8.25;;;;;11.93;76.85;101072.59;5019809;28;45505;-89
2021/11/14 00:57:48;;;;;;;;;8.00;8.00;;;;;11.90;76.58;101054.41;5020765;28;45659;-90
2021/11/14 01:00:17;;;;;;;;;10.00;9.00;;;;;11.95;76.72;101058.41;5022993;28;47425;-87
2021/11/14 01:02:43;;;;;;;;;13.00;10.00;;;;;11.82;76.63;101043.63;5022318;28;46067;-85
2021/11/14 01:05:14;;;;;;;;;11.50;10.00;;;;;11.97;76.59;101056.53;5020950;28;45598;-89
2021/11/14 01:07:40;;;;;;;;;10.00;9.00;;;;;11.92;76.39;101044.66;5020783;28;45647;-89
2021/11/14 01:10:08;;;;;;;;;9.75;9.25;;;;;11.97;76.50;101053.91;5003376;28;45831;-88
2021/11/14 01:12:34;;;;;;;;;9.75;9.25;;;;;11.91;76.76;101056.09;4984409;28;48237;-81
2021/11/14 01:15:00;;;;;;;;;9.00;8.00;;;;;11.97;76.61;101053.06;5016691;28;45625;-85
2021/11/14 01:17:26;;;;;;;;;9.00;7.50;;;;;11.93;76.53;101044.53;4999152;28;45725;-79
2021/11/14 01:23:16;;;;;;;;;10.50;10.00;;;;;11.94;76.33;101061.13;5017754;28;46074;-81
2021/11/14 01:25:43;;;;;;;;;10.00;8.75;;;;;11.98;76.45;101071.34;5017627;28;45891;-85
2021/11/14 01:28:09;;;;;;;;;9.50;8.25;;;;;11.98;76.56;101063.47;5017978;28;45812;-85
2021/11/14 01:30:39;;;;;;;;;10.00;8.25;;;;;11.95;76.51;101065.44;5017636;28;45639;-81
2021/11/14 01:33:06;;;;;;;;;11.00;9.00;;;;;11.92;76.53;101053.38;5017304;28;46482;-82
2021/11/14 01:35:33;;;;;;;;;7.75;7.50;;;;;11.96;76.85;101067.13;5017376;28;45644;-82
2021/11/14 01:37:58;;;;;;;;;7.50;7.50;;;;;11.97;76.55;101063.56;5017055;28;45837;-81
2021/11/14 01:40:29;;;;;;;;;11.00;9.25;;;;;12.00;76.37;101064.19;5000334;28;46594;-84
2021/11/14 01:42:55;;;;;;;;;8.25;7.50;;;;;11.95;76.76;101060.19;5018607;28;46135;-83
2021/11/14 01:45:21;;;;;;;;;11.50;9.00;;;;;12.01;76.56;101062.38;5018346;28;45675;-86
2021/11/14 01:47:47;;;;;;;;;12.00;8.75;;;;;12.00;76.45;101052.81;5017094;28;45595;-85
2021/11/14 01:54:19;;;;;;;;;10.50;10.50;;;;;12.09;76.35;101060.09;5017910;28;45676;-79
2021/11/14 01:56:47;;;;;;;;;10.00;9.50;;;;;12.01;76.42;101051.88;5024639;28;45730;-78
2021/11/14 01:59:13;;;;;;;;;9.25;8.25;;;;;12.06;76.25;101065.53;5025550;28;45571;-84
2021/11/14 02:01:38;;;;;;;;;9.50;8.25;;;;;11.99;76.12;101048.50;5006271;28;46879;-82
2021/11/14 02:07:25;;;;;;;;;9.00;9.00;;;;;12.03;76.28;101060.50;5020431;28;45565;-81
2021/11/14 02:09:51;;;;;;;;;8.25;8.00;;;;;12.05;76.21;101071.72;5001576;28;45676;-83
2021/11/14 02:12:18;;;;;;;;;8.25;8.00;;;;;12.04;76.21;101076.13;5019353;28;45569;-81
2021/11/14 02:14:43;;;;;;;;;8.75;7.75;;;;;11.98;76.35;101076.59;5018287;28;46164;-80
2021/11/14 02:17:09;;;;;;;;;12.00;9.50;;;;;12.01;76.29;101083.41;5019128;28;45575;-84
2021/11/14 02:22:57;;;;;;;;;8.00;7.50;;;;;11.99;76.65;101075.63;5018816;28;45639;-79
2021/11/14 02:25:22;;;;;;;;;10.50;9.00;;;;;12.02;76.46;101074.59;5001609;28;47155;-82
2021/11/14 02:27:50;;;;;;;;;13.00;10.25;;;;;11.94;76.30;101069.00;5022579;28;45799;-80
2021/11/14 02:30:17;;;;;;;;;7.25;7.00;;;;;12.03;76.39;101082.38;5023581;28;45627;-82
2021/11/14 02:32:44;;;;;;;;;7.00;6.50;;;;;12.02;76.53;101082.47;5008765;28;47471;-84
2021/11/14 02:38:31;;;;;;;;;9.00;8.75;;;;;11.98;76.66;101078.38;5017973;28;45714;-85
2021/11/14 02:40:58;;;;;;;;;8.50;8.00;;;;;11.95;77.26;101078.56;5018110;28;45461;-87
2021/11/14 02:43:26;;;;;;;;;9.25;8.25;;;;;11.88;77.38;101075.53;5018707;28;46857;-90
2021/11/14 02:45:52;;;;;;;;;14.00;9.50;;;;;11.84;77.60;101075.84;5017890;28;46556;-84
2021/11/14 02:48:18;;;;;;;;;8.25;8.00;;;;;11.68;77.72;101053.25;5000626;28;45813;-86
2021/11/14 02:54:07;;;;;;;;;8.25;7.25;;;;;11.68;77.88;101055.88;5019443;28;45698;-80
2021/11/14 02:56:33;;;;;;;;;11.00;7.00;;;;;11.82;77.80;101073.34;5024885;28;46313;-85
2021/11/14 02:58:59;;;;;;;;;8.75;7.50;;;;;11.82;77.53;101069.88;5026158;28;45624;-80
2021/11/14 03:01:30;;;;;;;;;8.00;6.75;;;;;11.80;77.69;101069.13;5030441;28;45727;-80
2021/11/14 03:03:56;;;;;;;;;5.00;4.00;;;;;11.80;77.79;101074.38;5014858;28;46544;-78
2021/11/14 03:06:23;;;;;;;;;8.75;8.00;;;;;11.81;78.02;101069.03;5005940;28;46934;-81
2021/11/14 03:08:48;;;;;;;;;7.75;6.25;;;;;11.81;77.67;101066.41;5021000;28;45529;-86
2021/11/14 03:11:15;;;;;;;;;7.25;5.00;;;;;11.77;77.74;101068.38;5019940;28;45643;-85
2021/11/14 03:13:41;;;;;;;;;8.25;7.25;;;;;11.82;77.58;101077.75;5021515;28;47684;-87
2021/11/14 03:16:10;;;;;;;;;4.50;4.50;;;;;11.80;77.85;101074.38;5024584;28;47106;-80
2021/11/14 03:18:35;;;;;;;;;7.00;7.00;;;;;11.73;77.72;101059.03;5028387;28;45600;-85
2021/11/14 03:24:22;;;;;;;;;7.75;7.25;;;;;11.73;77.97;101073.94;5019768;28;45978;-91
2021/11/14 03:26:48;;;;;;;;;7.00;6.00;;;;;11.62;77.71;101056.28;5026236;28;47001;-91
2021/11/14 03:29:13;;;;;;;;;7.00;5.00;;;;;11.76;77.63;101076.38;5025658;28;45897;-83
2021/11/14 03:31:40;;;;;;;;;7.75;7.25;;;;;11.74;77.43;101079.09;5024642;28;45525;-87
2021/11/14 03:34:06;;;;;;;;;7.00;5.50;;;;;11.71;77.62;101070.59;5023177;28;46756;-83
2021/11/14 03:36:32;;;;;;;;;7.00;7.00;;;;;11.65;77.70;101069.22;5019962;28;47022;-83
2021/11/14 03:39:00;;;;;;;;;8.00;5.00;;;;;11.71;77.76;101075.84;5024169;28;45502;-89
2021/11/14 03:41:39;;;;;;;;;7.00;5.25;;;;;11.67;77.72;101071.72;5026372;28;45744;-87
2021/11/14 03:44:07;;;;;;;;;5.25;4.50;;;;;11.70;77.40;101082.88;5026235;28;46538;-84
2021/11/14 03:46:32;;;;;;;;;5.50;4.00;;;;;11.73;77.90;101077.41;5022627;28;46029;-91
2021/11/14 03:48:59;;;;;;;;;8.50;7.00;;;;;11.72;77.64;101073.06;5021001;28;45497;-81
2021/11/14 03:51:25;;;;;;;;;8.00;8.00;;;;;11.71;77.93;101076.63;5020180;28;45580;-87
2021/11/14 03:53:52;;;;;;;;;7.00;6.50;;;;;11.73;77.68;101069.53;5021380;28;47495;-83
2021/11/14 03:56:19;;;;;;;;;8.25;6.00;;;;;11.61;77.87;101056.38;5019952;28;45546;-89
2021/11/14 03:58:44;;;;;;;;;8.50;7.00;;;;;11.77;77.72;101083.28;5019932;28;45636;-84
2021/11/14 04:01:14;;;;;;;;;7.50;7.50;;;;;11.71;77.69;101060.09;5018676;28;45736;-79
2021/11/14 04:03:40;;;;;;;;;9.25;7.75;;;;;11.70;77.70;101056.63;5018633;28;46545;-80
2021/11/14 04:09:27;;;;;;;;;8.00;6.75;;;;;11.84;77.49;101081.94;5018050;28;45691;-80
2021/11/14 04:11:53;;;;;;;;;7.00;6.00;;;;;11.83;77.49;101074.16;5018282;28;45597;-86
2021/11/14 04:14:19;;;;;;;;;5.00;5.00;;;;;11.87;77.48;101075.66;5018370;28;45818;-79
2021/11/14 04:16:44;;;;;;;;;7.75;7.25;;;;;11.83;77.45;101074.16;5019162;28;45857;-85
2021/11/14 04:19:11;;;;;;;;;8.00;8.00;;;;;11.86;77.47;101068.72;5022395;28;45668;-86
2021/11/14 04:21:37;;;;;;;;;7.75;6.75;;;;;11.88;77.60;101079.94;5023869;28;45584;-83
2021/11/14 04:24:03;;;;;;;;;6.50;6.50;;;;;11.83;77.24;101075.00;5022561;28;47437;-91
2021/11/14 04:26:28;;;;;;;;;8.50;7.00;;;;;11.88;77.48;101072.06;5002958;28;46236;-80
2021/11/14 04:28:54;;;;;;;;;10.00;6.50;;;;;11.88;77.33;101072.06;5019610;28;45715;-80
2021/11/14 04:31:20;;;;;;;;;9.75;7.50;;;;;11.85;77.47;101065.25;5018816;28;45697;-82
2021/11/14 04:33:45;;;;;;;;;8.00;7.00;;;;;11.74;77.53;101039.72;5020012;28;46513;-88
2021/11/14 04:39:32;;;;;;;;;7.50;7.50;;;;;11.88;77.18;101059.75;5020535;28;45907;-79
2021/11/14 04:41:59;;;;;;;;;9.00;7.00;;;;;11.96;77.12;101075.00;5020097;28;45838;-83
2021/11/14 04:44:24;;;;;;;;;10.00;8.50;;;;;11.94;77.19;101067.22;5020684;28;46639;-84
2021/11/14 04:46:53;;;;;;;;;10.25;9.00;;;;;11.87;77.31;101058.13;5021284;28;46038;-81
2021/11/14 04:49:21;;;;;;;;;5.00;4.00;;;;;11.95;77.21;101063.66;5019623;28;45819;-84
2021/11/14 04:51:49;;;;;;;;;7.00;7.00;;;;;11.89;77.24;101071.09;5001966;28;45711;-83
2021/11/14 04:54:15;;;;;;;;;6.75;6.75;;;;;11.85;77.10;101059.16;5000268;28;46617;-85
2021/11/14 04:56:42;;;;;;;;;9.00;7.75;;;;;11.76;77.00;101058.84;5000812;28;46359;-84
2021/11/14 04:59:08;;;;;;;;;12.50;8.50;;;;;11.89;77.14;101086.88;5022265;28;45740;-79
2021/11/14 05:01:34;;;;;;;;;8.25;7.00;;;;;11.87;77.05;101067.78;5020445;28;45584;-83
2021/11/14 05:04:00;;;;;;;;;9.25;8.00;;;;;11.77;76.96;101051.78;4985952;28;46585;-82
2021/11/14 05:09:47;;;;;;;;;10.50;8.50;;;;;11.95;77.00;101089.91;5017095;28;45501;-78
2021/11/14 05:12:12;;;;;;;;;9.50;8.00;;;;;11.88;77.09;101064.19;5019320;28;45687;-80
2021/11/14 05:14:38;;;;;;;;;8.75;7.00;;;;;11.94;76.97;101069.00;5020717;28;46661;-82
2021/11/14 05:17:04;;;;;;;;;5.00;5.00;;;;;11.92;76.92;101068.28;5022571;28;46968;-83
2021/11/14 05:19:29;;;;;;;;;10.00;8.50;;;;;11.82;77.08;101041.84;5002725;28;45916;-80
2021/11/14 05:21:54;;;;;;;;;7.00;7.00;;;;;11.96;77.05;101061.88;5018663;28;45895;-81
2021/11/14 05:24:23;;;;;;;;;11.00;8.75;;;;;11.97;77.32;101063.56;5018140;28;45581;-80
2021/11/14 05:27:17;;;;;;;;;8.50;7.00;;;;;11.92;77.00;101052.53;5018037;28;45994;-89
2021/11/14 05:29:43;;;;;;;;;10.75;10.00;;;;;11.97;77.30;101063.56;4979072;28;45765;-88
2021/11/14 05:32:12;;;;;;;;;8.50;8.00;;;;;11.93;77.30;101056.84;4979339;28;45812;-86
2021/11/14 05:35:15;;;;;;;;;10.00;8.75;;;;;11.51;76.99;100992.34;4995576;28;45678;-90
2021/11/14 05:37:41;;;;;;;;;10.50;8.00;;;;;12.00;77.22;101071.22;4917879;28;46397;-87
2021/11/14 05:40:07;;;;;;;;;11.25;9.50;;;;;11.99;77.54;101056.41;4916996;28;45727;-84
2021/11/14 05:42:32;;;;;;;;;10.75;10.00;;;;;11.95;77.37;101063.66;4917025;28;45565;-85
2021/11/14 05:44:58;;;;;;;;;7.00;4.00;;;;;11.96;77.48;101070.59;4916281;28;45786;-86
2021/11/14 05:47:25;;;;;;;;;7.25;7.00;;;;;11.88;77.63;101072.91;4916794;28;45731;-89
2021/11/14 05:49:50;;;;;;;;;13.75;9.75;;;;;11.88;77.71;101070.25;4916184;28;45686;-85
2021/11/14 05:53:05;;;;;;;;;8.75;8.50;;;;;11.35;77.74;100993.41;4916765;28;45978;-90
2021/11/14 05:55:32;;;;;;;;;10.00;8.25;;;;;11.73;77.94;101061.66;4914986;28;46923;-82
2021/11/14 05:58:02;;;;;;;;;11.50;8.00;;;;;11.89;77.97;101086.88;4916202;28;46098;-86
2021/11/14 06:05:29;;;;;;;;;9.00;9.00;;;;;11.77;77.75;101078.88;4919814;28;46242;-84
2021/11/14 06:07:54;;;;;;;;;11.00;10.00;;;;;11.88;77.97;101093.06;4935512;28;46077;-82
2021/11/14 06:10:19;;;;;;;;;15.00;10.75;;;;;11.86;78.03;101093.19;4934843;28;45882;-87
2021/11/14 06:12:46;;;;;;;;;11.75;11.75;;;;;11.78;78.49;101083.19;4935340;28;45642;-87
2021/11/14 06:15:14;;;;;;;;;10.25;9.00;;;;;11.78;78.29;101090.22;4982212;28;45646;-89
2021/11/14 06:17:39;;;;;;;;;9.50;9.00;;;;;11.76;78.55;101085.09;4996018;28;46189;-88
2021/11/14 06:20:06;;;;;;;;;9.50;9.50;;;;;11.80;78.49;101084.88;4995595;28;46122;-83
2021/11/14 06:22:32;;;;;;;;;7.50;5.50;;;;;11.83;78.46;101095.16;4995983;28;45551;-88
2021/11/14 06:24:58;;;;;;;;;9.75;7.00;;;;;11.80;78.61;101087.50;4995412;28;45603;-84
2021/11/14 06:27:24;;;;;;;;;2.50;2.00;;;;;11.85;78.53;101098.53;4995459;28;46057;-86
2021/11/14 06:29:51;;;;;;;;;9.00;7.75;;;;;11.71;78.63;101088.94;4998668;28;45634;-83
2021/11/14 06:32:16;;;;;;;;;7.25;7.25;;;;;11.82;78.59;101104.84;5000278;28;45874;-83
2021/11/14 06:34:42;;;;;;;;;10.25;9.75;;;;;11.82;78.62;101112.72;5000412;28;46755;-83
2021/11/14 06:40:29;;;;;;;;;7.75;7.25;;;;;11.82;78.40;101114.50;4997603;28;45867;-85
2021/11/14 06:42:55;;;;;;;;;10.00;8.00;;;;;11.78;78.51;101116.47;4997293;28;45565;-87
2021/11/14 06:45:20;;;;;;;;;10.00;9.00;;;;;11.82;78.65;101128.47;4996454;28;46388;-86
2021/11/14 06:47:46;;;;;;;;;10.25;8.75;;;;;11.76;78.70;101118.38;4996814;28;45849;-79
2021/11/14 06:50:13;;;;;;;;;9.00;7.75;;;;;11.60;78.70;101089.69;4997359;28;45576;-83
2021/11/14 06:52:41;;;;;;;;;6.75;5.75;;;;;11.78;78.88;101122.56;4998880;28;45619;-84
2021/11/14 06:55:07;;;;;;;;;10.00;9.00;;;;;11.64;78.88;101098.19;5012895;28;48585;-83
2021/11/14 06:57:32;;;;;;;;;8.50;8.25;;;;;11.78;78.72;101119.09;5015605;28;46027;-83
2021/11/14 06:59:58;;;;;;;;;7.75;7.75;;;;;11.81;78.80;101126.78;5015453;28;45552;-88
2021/11/14 07:02:23;;;;;;;;;8.25;7.75;;;;;11.79;78.80;101131.28;5015150;28;45840;-90
2021/11/14 07:04:49;;;;;;;;;8.50;8.25;;;;;11.82;78.95;101130.25;4997129;28;48660;-84
2021/11/14 07:10:36;;;;;;;;;7.75;7.00;;;;;11.81;78.71;101134.66;5015064;28;45676;-86
2021/11/14 07:13:02;;;;;;;;;9.50;9.00;;;;;11.81;78.89;101142.53;5018145;28;45706;-87
2021/11/14 07:15:28;;;;;;;;;9.50;8.25;;;;;11.74;78.94;101130.75;5020834;28;46444;-86
2021/11/14 07:17:54;;;;;;;;;10.25;8.25;;;;;11.85;78.81;101146.63;5020655;28;45855;-84
2021/11/14 07:20:20;;;;;;;;;8.25;6.75;;;;;11.87;78.70;101146.53;5021194;28;45857;-84
2021/11/14 07:22:46;;;;;;;;;9.75;8.75;;;;;11.84;78.81;101139.69;5024459;28;45535;-84
2021/11/14 07:25:15;;;;;;;;;7.25;5.50;;;;;11.90;78.92;101135.81;5026402;28;46420;-88
2021/11/14 07:27:43;;;;;;;;;8.50;7.50;;;;;11.96;78.62;101157.25;5021951;28;46146;-83
2021/11/14 07:30:12;;;;;;;;;8.25;6.00;;;;;11.99;78.61;101164.91;5020721;28;45559;-87
2021/11/14 07:32:42;;;;;;;;;7.50;7.25;;;;;11.87;78.47;101142.13;5021911;28;45577;-86
2021/11/14 07:35:12;;;;;;;;;7.00;7.00;;;;;11.89;78.36;101149.88;5021384;28;46559;-87
2021/11/14 07:41:00;;;;;;;;;7.25;7.25;;;;;11.88;78.61;101145.56;5026575;28;45557;-80
2021/11/14 07:43:25;;;;;;;;;9.25;8.00;;;;;12.05;78.46;101177.63;5028240;28;45626;-80
2021/11/14 07:45:50;;;;;;;;;8.00;7.50;;;;;12.02;78.42;101164.72;5017877;28;47549;-80
2021/11/14 07:48:16;;;;;;;;;8.75;7.75;;;;;12.03;78.35;101168.19;5021136;28;47047;-81
2021/11/14 07:50:41;;;;;;;;;10.00;8.25;;;;;12.09;78.41;101175.66;5037158;28;45312;-88
2021/11/14 07:53:08;;;;;;;;;8.75;7.25;;;;;12.10;78.29;101180.78;5036210;28;45552;-87
2021/11/14 07:55:34;;;;;;;;;8.75;6.75;;;;;12.11;78.26;101181.63;5036448;28;45552;-86
2021/11/14 07:58:04;;;;;;;;;10.00;8.00;;;;;12.07;78.18;101188.03;5040148;28;45615;-80
2021/11/14 08:00:29;;;;;;;;;6.50;5.50;;;;;11.98;78.25;101170.28;5034353;28;45266;-80
2021/11/14 08:02:55;;;;;;;;;9.50;8.00;;;;;12.10;78.02;101193.06;5040472;28;45076;-82
2021/11/14 08:05:21;;;;;;;;;7.25;5.50;;;;;12.13;78.18;101203.38;5040323;28;45355;-84
2021/11/14 08:07:47;;;;;;;;;6.25;6.25;;;;;12.05;78.00;101182.03;5022622;28;46140;-82
2021/11/14 08:10:15;;;;;;;;;6.50;6.50;;;;;12.13;77.96;101187.63;5036146;28;45165;-78
2021/11/14 08:12:41;;;;;;;;;7.50;5.00;;;;;12.16;77.83;101195.28;5019619;28;45664;-86
2021/11/14 08:15:07;;;;;;;;;7.75;7.00;;;;;12.07;78.01;101183.63;5014946;28;46351;-79
2021/11/14 08:17:32;;;;;;;;;8.00;6.25;;;;;12.11;77.82;101189.50;5032908;28;46277;-79
2021/11/14 08:20:00;;;;;;;;;8.50;8.00;;;;;12.14;77.90;101194.56;5034856;28;44922;-80
2021/11/14 08:22:27;;;;;;;;;8.00;7.00;;;;;12.11;77.60;101184.25;5020398;28;45636;-78
2021/11/14 08:24:52;;;;;;;;;11.00;9.75;;;;;12.19;77.61;101193.31;5014521;28;45730;-78
2021/11/14 08:27:18;;;;;;;;;9.00;7.00;;;;;12.20;77.37;101188.84;5015659;28;46929;-78
2021/11/14 08:29:43;;;;;;;;;7.25;7.00;;;;;12.27;77.36;101207.66;5015737;28;45776;-77
2021/11/14 08:32:09;;;;;;;;;7.75;6.75;;;;;12.31;77.09;101196.03;5015679;28;45878;-76
2021/11/14 08:34:36;;;;;;;;;5.50;5.00;;;;;12.16;77.07;101177.72;5016014;28;46475;-81
2021/11/14 08:37:01;;;;;;;;;6.25;5.25;;;;;12.35;76.84;101198.34;5015718;28;47108;-79
2021/11/14 08:39:26;;;;;;;;;7.75;4.50;;;;;12.36;76.61;101201.81;5015393;28;45493;-79
2021/11/14 08:41:52;;;;;;;;;6.25;5.00;;;;;12.36;76.53;101207.06;4997413;28;45654;-78
2021/11/14 08:44:17;;;;;;;;;6.50;5.00;;;;;12.28;76.66;101198.84;5014998;28;46513;-79
2021/11/14 08:46:43;;;;;;;;;6.50;5.00;;;;;12.35;76.77;101200.97;5015179;28;46921;-78
2021/11/14 08:49:08;;;;;;;;;5.50;4.75;;;;;12.36;76.55;101191.31;5014985;28;45970;-78
2021/11/14 08:51:34;;;;;;;;;6.25;6.25;;;;;12.26;76.62;101175.31;5015525;28;45767;-80
2021/11/14 08:53:59;;;;;;;;;7.00;4.00;;;;;12.38;76.66;101195.50;4997875;28;46213;-78
2021/11/14 08:56:29;;;;;;;;;7.25;7.00;;;;;12.42;76.19;101204.84;5015868;28;45736;-79
2021/11/14 08:58:55;;;;;;;;;7.75;5.00;;;;;12.37;76.12;101195.59;5016653;28;45771;-80
2021/11/14 09:01:20;;;;;;;;;5.00;5.00;;;;;12.49;76.10;101207.88;5016681;28;45559;-79
2021/11/14 09:03:46;;;;;;;;;4.25;4.25;;;;;12.46;75.96;101205.47;5014924;28;46127;-81
2021/11/14 09:06:11;;;;;;;;;4.75;4.25;;;;;12.51;75.89;101209.47;5014851;28;46273;-79
2021/11/14 09:08:37;;;;;;;;;4.75;4.00;;;;;12.41;75.85;101192.66;5015071;28;45896;-78
2021/11/14 09:11:04;;;;;;;;;5.00;4.00;;;;;12.53;75.87;101207.56;5015828;28;45791;-80
2021/11/14 09:13:30;;;;;;;;;3.00;3.00;;;;;12.53;75.63;101206.72;5015855;28;46620;-81
2021/11/14 09:15:58;;;;;;;;;8.00;5.00;;;;;12.53;75.69;101198.81;5014872;28;46107;-75
2021/11/14 09:18:25;;;;;;;;;5.00;4.75;;;;;12.47;75.80;101189.59;5015480;28;45724;-77
2021/11/14 09:20:51;;;;;;;;;7.00;5.00;;;;;12.52;75.84;101208.50;5014753;28;45851;-75
2021/11/14 09:26:38;;;;;;;;;6.50;5.00;;;;;12.54;75.25;101208.41;5014445;28;45728;-80
2021/11/14 09:29:05;;;;;;;;;10.00;8.00;;;;;12.55;75.59;101204.84;4997345;28;45647;-81
2021/11/14 09:31:32;;;;;;;;;7.50;5.00;;;;;12.61;75.50;101212.28;5015754;28;45693;-79
2021/11/14 09:34:02;;;;;;;;;9.75;8.00;;;;;12.60;75.48;101206.19;5017222;28;46687;-81
2021/11/14 09:36:30;;;;;;;;;5.00;5.00;;;;;12.63;75.30;101214.81;5014439;28;47033;-75
2021/11/14 09:39:08;;;;;;;;;6.00;5.00;;;;;12.54;75.13;101211.88;4998389;28;45595;-76
2021/11/14 09:41:38;;;;;;;;;4.50;3.25;;;;;12.63;75.00;101225.34;5014865;28;45560;-76
2021/11/14 09:44:04;;;;;;;;;3.25;3.00;;;;;12.66;75.10;101222.47;5015156;28;45713;-77
2021/11/14 09:46:30;;;;;;;;;3.75;3.00;;;;;12.61;74.72;101204.41;5019254;28;46311;-81
2021/11/14 09:48:57;;;;;;;;;5.00;4.00;;;;;12.71;74.95;101215.94;5018031;28;45668;-79
2021/11/14 09:51:23;;;;;;;;;5.50;4.00;;;;;12.71;74.42;101212.47;5021353;28;45738;-82
2021/11/14 09:57:51;;;;;;;;;5.00;4.00;;;;;12.73;74.08;101208.81;5009278;28;45768;-81
2021/11/14 10:00:19;;;;;;;;;8.25;4.50;;;;;12.84;74.38;101218.56;5014349;28;45756;-77
2021/11/14 10:02:45;;;;;;;;;4.00;3.00;;;;;12.89;74.29;101226.97;5014378;28;45606;-78
2021/11/14 10:05:13;;;;;;;;;5.00;4.00;;;;;12.89;74.36;101221.72;5014017;28;46861;-77
2021/11/14 10:07:41;;;;;;;;;7.25;5.00;;;;;12.94;74.08;101230.13;5014237;28;46278;-78
2021/11/14 10:10:11;;;;;;;;;9.25;6.25;;;;;13.00;74.23;101230.53;5013980;28;45624;-79
2021/11/14 10:12:36;;;;;;;;;5.50;5.50;;;;;12.98;73.85;101221.06;5014163;28;45699;-80
2021/11/14 10:15:14;;;;;;;;;9.00;9.00;;;;;13.01;73.68;101239.22;5013432;28;46243;-78
2021/11/14 10:17:45;;;;;;;;;11.50;8.75;;;;;12.98;73.95;101226.31;5013670;28;46233;-79
2021/11/14 10:20:17;;;;;;;;;8.75;6.00;;;;;12.98;74.25;101216.63;5013820;28;45548;-79
2021/11/14 10:22:47;;;;;;;;;9.75;8.00;;;;;13.00;74.33;101221.78;5013773;28;45598;-76
2021/11/14 10:25:15;;;;;;;;;8.25;7.00;;;;;13.00;74.17;101225.25;5013773;28;47485;-78
2021/11/14 10:27:41;;;;;;;;;9.25;8.00;;;;;12.89;74.20;101209.41;5013663;28;46858;-78
2021/11/14 10:30:10;;;;;;;;;8.75;8.25;;;;;12.95;74.46;101214.25;5013724;28;45898;-79
2021/11/14 10:32:36;;;;;;;;;8.50;8.00;;;;;12.97;74.24;101222.84;5014103;28;45695;-79
2021/11/14 10:35:03;;;;;;;;;9.50;7.50;;;;;12.97;74.45;101230.72;5013776;28;45776;-78
2021/11/14 10:37:44;;;;;;;;;9.50;9.00;;;;;12.99;74.50;101225.38;5013872;28;46382;-77
2021/11/14 10:40:31;;;;;;;;;8.00;8.00;;;;;13.00;73.92;101222.63;5013915;28;45760;-77
2021/11/14 10:42:59;;;;;;;;;12.75;10.75;;;;;13.01;74.04;101226.06;5013680;28;45596;-77
2021/11/14 10:45:26;;;;;;;;;10.25;9.25;;;;;12.93;73.92;101210.03;5013314;28;46691;-77
2021/11/14 10:47:57;;;;;;;;;12.50;10.00;;;;;13.02;74.14;101223.34;5012107;28;47251;-81
2021/11/14 10:50:26;;;;;;;;;12.00;9.50;;;;;13.01;73.74;101221.66;5013232;28;45725;-79
2021/11/14 10:52:57;;;;;;;;;12.25;10.50;;;;;13.06;73.63;101226.63;5013447;28;45901;-78
2021/11/14 10:55:25;;;;;;;;;9.75;9.25;;;;;13.12;73.46;101222.75;5013270;28;47672;-78
2021/11/14 10:57:50;;;;;;;;;10.00;9.00;;;;;13.12;73.42;101222.75;5013061;28;45600;-79
2021/11/14 11:00:18;;;;;;;;;17.25;13.00;;;;;13.07;73.54;101211.66;5013099;28;45889;-77
2021/11/14 11:02:48;;;;;;;;;11.50;10.50;;;;;13.17;73.15;101226.69;5013310;28;45822;-78
2021/11/14 11:05:19;;;;;;;;;9.50;9.50;;;;;13.06;73.46;101212.63;4995715;28;46481;-79
2021/11/14 11:08:21;;;;;;;;;13.50;11.50;;;;;13.16;73.25;101225.03;5017841;28;47041;-79
2021/11/14 11:10:57;;;;;;;;;9.75;9.00;;;;;13.19;73.33;101235.31;4995126;28;45838;-80
2021/11/14 11:13:36;;;;;;;;;11.50;9.00;;;;;13.19;73.18;101242.38;5016394;28;45571;-78
2021/11/14 11:16:14;;;;;;;;;11.50;9.00;;;;;13.18;73.34;101236.28;5015156;28;45585;-79
2021/11/14 11:18:44;;;;;;;;;13.25;11.00;;;;;13.18;72.85;101236.28;5012958;28;46961;-77
2021/11/14 11:21:14;;;;;;;;;12.00;11.25;;;;;13.18;72.96;101233.63;5012947;28;45651;-78
2021/11/14 11:23:45;;;;;;;;;13.00;11.00;;;;;13.18;72.97;101231.00;5013274;28;45616;-79
2021/11/14 11:26:14;;;;;;;;;9.75;9.50;;;;;13.19;73.01;101230.06;5012894;28;47582;-78
2021/11/14 11:28:44;;;;;;;;;13.50;12.50;;;;;13.21;73.00;101233.44;5012952;28;45702;-78
2021/11/14 11:31:13;;;;;;;;;10.75;9.50;;;;;13.22;72.97;101218.50;4995411;28;46305;-78
2021/11/14 11:33:46;;;;;;;;;12.00;10.00;;;;;13.31;72.62;101233.59;4994988;28;45898;-80
2021/11/14 11:36:12;;;;;;;;;14.25;12.50;;;;;13.31;72.54;101220.44;5012815;28;47397;-79
2021/11/14 11:38:42;;;;;;;;;14.00;12.00;;;;;13.42;72.81;101229.25;5012289;28;47264;-77
2021/11/14 11:41:08;;;;;;;;;17.00;12.50;;;;;13.45;72.24;101229.00;5012528;28;45777;-80
2021/11/14 11:43:37;;;;;;;;;16.00;12.00;;;;;13.46;72.45;101227.22;5013225;28;45732;-81
2021/11/14 11:46:07;;;;;;;;;14.50;12.25;;;;;13.52;72.45;101226.78;5012320;28;47485;-78
2021/11/14 11:48:44;;;;;;;;;14.25;11.00;;;;;13.53;71.91;101225.84;5013049;28;46403;-77
2021/11/14 11:51:16;;;;;;;;;11.50;11.00;;;;;13.55;72.08;101233.63;5012549;28;45837;-80
2021/11/14 11:53:43;;;;;;;;;11.50;10.75;;;;;13.56;71.66;101233.50;5012992;28;45680;-79
2021/11/14 11:56:15;;;;;;;;;12.75;11.25;;;;;13.55;72.19;101239.69;5012785;28;46457;-79
2021/11/14 11:58:46;;;;;;;;;13.75;12.25;;;;;13.58;71.87;101238.66;5015080;28;46185;-81
2021/11/14 12:01:30;;;;;;;;;14.00;12.00;;;;;13.52;71.60;101223.31;5015751;28;45766;-79
2021/11/14 12:04:11;;;;;;;;;16.75;12.25;;;;;13.56;71.49;101230.84;5015886;28;45672;-77
2021/11/14 12:06:46;;;;;;;;;12.00;11.50;;;;;13.60;71.52;101234.97;5015561;28;48272;-81
2021/11/14 12:09:14;;;;;;;;;11.75;10.25;;;;;13.62;71.72;101234.84;5015912;28;46184;-78
2021/11/14 12:11:43;;;;;;;;;18.50;13.25;;;;;13.59;71.50;101229.81;5015588;28;45705;-79
2021/11/14 12:14:30;;;;;;;;;13.25;13.00;;;;;13.70;71.55;101237.75;5016067;28;45662;-78
2021/11/14 12:17:06;;;;;;;;;14.75;12.00;;;;;13.74;70.91;101249.72;5015989;28;46503;-76
2021/11/14 12:19:35;;;;;;;;;13.50;12.00;;;;;13.75;70.79;101244.38;5015625;28;46560;-78
2021/11/14 12:22:09;;;;;;;;;11.75;10.75;;;;;13.76;70.59;101246.06;4997986;28;45823;-80
2021/11/14 12:24:52;;;;;;;;;11.00;10.50;;;;;13.77;70.84;101244.22;5016063;28;45699;-81
2021/11/14 12:27:32;;;;;;;;;12.25;11.50;;;;;13.73;71.02;101229.63;5015885;28;45628;-75
2021/11/14 12:30:08;;;;;;;;;14.75;12.00;;;;;13.76;70.92;101246.06;5015715;28;46581;-80